Time;durP1;ratioP1;P1;durP2;ratioP2;P2;SDS_P1;SDS_P2;PMS_P1;PMS_P2;Temp;Humidity;BMP_temperature;BMP_pressure;BME280_temperature;BME280_humidity;BME280_pressure;Samples;Min_cycle;Max_cycle;Signal;HPM_P1;HPM_P2
2022/10/11 00:00:57;;;;;;;5.53;1.33;;;8.70;99.90;;;;;;5060722;28;20055;-74
2022/10/11 00:03:23;;;;;;;7.17;1.20;;;8.70;99.90;;;;;;5057639;28;20163;-73
2022/10/11 00:05:48;;;;;;;10.20;1.20;;;8.70;99.90;;;;;;5062903;28;20524;-74
2022/10/11 00:08:14;;;;;;;3.87;1.07;;;8.70;99.90;;;;;;5059133;28;20108;-74
2022/10/11 00:10:40;;;;;;;5.17;1.20;;;8.70;99.90;;;;;;5055611;28;20554;-74
2022/10/11 00:13:06;;;;;;;3.20;1.30;;;8.70;99.90;;;;;;5055556;28;20246;-73
2022/10/11 00:15:32;;;;;;;4.97;1.00;;;8.70;99.90;;;;;;5062674;28;20374;-73
2022/10/11 00:17:57;;;;;;;8.18;1.15;;;8.70;99.90;;;;;;5064328;28;20379;-74
2022/10/11 00:20:24;;;;;;;6.13;1.63;;;8.60;99.90;;;;;;5063165;28;20032;-73
2022/10/11 00:22:52;;;;;;;7.13;0.85;;;8.60;99.90;;;;;;5054323;28;20044;-74
2022/10/11 00:25:18;;;;;;;4.03;1.10;;;8.60;99.90;;;;;;5058263;28;20040;-74
2022/10/11 00:27:44;;;;;;;6.03;1.17;;;8.60;99.90;;;;;;5063317;28;20055;-73
2022/10/11 00:30:11;;;;;;;8.63;1.43;;;8.60;99.90;;;;;;5059724;28;20048;-73
2022/10/11 00:32:37;;;;;;;;;;;8.60;99.90;;;;;;5060807;28;20055;-73
2022/10/11 00:35:05;;;;;;;5.82;1.25;;;8.60;99.90;;;;;;5057778;28;20027;-73
2022/10/11 00:37:35;;;;;;;7.53;1.10;;;8.60;99.90;;;;;;5062532;28;20048;-74
2022/10/11 00:40:02;;;;;;;4.55;1.00;;;8.60;99.90;;;;;;5051487;28;20429;-74
2022/10/11 00:42:28;;;;;;;7.68;1.08;;;8.60;99.90;;;;;;5056862;28;20129;-73
2022/10/11 00:45:26;;;;;;;8.00;0.93;;;8.60;99.90;;;;;;5054982;28;20458;-73
2022/10/11 00:47:54;;;;;;;3.22;0.98;;;8.50;99.90;;;;;;5050903;28;20059;-72
2022/10/11 00:50:22;;;;;;;7.15;1.40;;;8.50;99.90;;;;;;5064659;28;20174;-73
2022/10/11 00:52:54;;;;;;;8.50;1.92;;;8.50;99.90;;;;;;5055873;28;20548;-73
2022/10/11 00:55:24;;;;;;;3.70;0.75;;;8.50;99.90;;;;;;5057935;28;20045;-74
2022/10/11 00:57:54;;;;;;;4.25;1.15;;;8.50;99.90;;;;;;5058126;28;20064;-73
2022/10/11 01:00:20;;;;;;;6.25;0.93;;;8.50;99.90;;;;;;5060145;28;20070;-73
2022/10/11 01:02:46;;;;;;;4.27;0.90;;;8.50;99.90;;;;;;5059018;28;20060;-73
2022/10/11 01:05:16;;;;;;;5.63;1.15;;;8.50;99.90;;;;;;5064113;28;20277;-73
2022/10/11 01:07:43;;;;;;;4.15;1.77;;;8.50;99.90;;;;;;5058545;28;20060;-73
2022/10/11 01:10:09;;;;;;;5.18;1.45;;;8.50;99.90;;;;;;5058083;28;20056;-73
2022/10/11 01:12:41;;;;;;;8.50;1.15;;;8.50;99.90;;;;;;5073221;28;20605;-73
2022/10/11 01:15:20;;;;;;;8.68;0.80;;;8.50;99.90;;;;;;5060860;28;20117;-73
2022/10/11 01:17:58;;;;;;;5.20;0.70;;;8.50;99.90;;;;;;5058923;28;20431;-73
2022/10/11 01:20:34;;;;;;;6.57;1.52;;;8.40;99.90;;;;;;5057450;28;20033;-73
2022/10/11 01:23:21;;;;;;;7.30;1.73;;;8.40;99.90;;;;;;5061828;28;20142;-73
2022/10/11 01:26:13;;;;;;;6.22;1.08;;;8.40;99.90;;;;;;5054378;28;20032;-72
2022/10/11 01:29:03;;;;;;;7.60;1.10;;;8.40;99.90;;;;;;5061005;28;20359;-73
2022/10/11 01:31:52;;;;;;;7.72;1.00;;;8.40;99.90;;;;;;5056573;28;20113;-73
2022/10/11 01:34:31;;;;;;;3.58;0.85;;;8.40;99.90;;;;;;5046133;28;20045;-73
2022/10/11 01:37:14;;;;;;;5.55;1.15;;;8.40;99.90;;;;;;5058933;28;20036;-73
2022/10/11 01:40:13;;;;;;;3.38;0.95;;;8.40;99.90;;;;;;5054601;28;20059;-73
2022/10/11 01:42:40;;;;;;;10.25;1.13;;;8.30;99.90;;;;;;5053221;28;20070;-73
2022/10/11 01:45:09;;;;;;;14.35;1.35;;;8.40;99.90;;;;;;5049297;28;20439;-73
2022/10/11 01:47:35;;;;;;;4.38;0.80;;;8.30;99.90;;;;;;5059488;28;20090;-73
2022/10/11 01:50:01;;;;;;;4.23;0.70;;;8.30;99.90;;;;;;5055096;28;20037;-73
2022/10/11 01:52:31;;;;;;;6.00;1.33;;;8.20;99.90;;;;;;5042993;28;20075;-73
2022/10/11 01:55:22;;;;;;;6.32;0.90;;;8.20;99.90;;;;;;5054584;28;20127;-73
2022/10/11 01:58:10;;;;;;;8.23;1.15;;;8.20;99.90;;;;;;5055106;28;20040;-73
2022/10/11 02:00:52;;;;;;;6.82;1.00;;;8.20;99.90;;;;;;5052671;28;20047;-73
2022/10/11 02:03:34;;;;;;;10.13;1.40;;;8.20;99.90;;;;;;5059952;28;20451;-73
2022/10/11 02:06:19;;;;;;;3.88;0.80;;;8.20;99.90;;;;;;5061911;28;20167;-73
2022/10/11 02:09:12;;;;;;;10.85;1.02;;;8.20;99.90;;;;;;5045329;28;20090;-74
2022/10/11 02:11:41;;;;;;;6.43;0.95;;;8.20;99.90;;;;;;5056197;28;20534;-74
2022/10/11 02:14:14;;;;;;;5.57;0.80;;;8.20;99.90;;;;;;5058022;28;20159;-74
2022/10/11 02:16:54;;;;;;;7.68;1.20;;;8.10;99.90;;;;;;5057924;28;20570;-74
2022/10/11 02:19:25;;;;;;;4.03;1.05;;;8.10;99.90;;;;;;5058029;28;20032;-74
2022/10/11 02:21:55;;;;;;;4.93;1.15;;;8.10;99.90;;;;;;5059197;28;20116;-74
2022/10/11 02:24:26;;;;;;;6.07;0.90;;;8.10;99.90;;;;;;5063561;28;20512;-74
2022/10/11 02:26:54;;;;;;;3.75;0.80;;;8.10;99.90;;;;;;5055150;28;20468;-74
2022/10/11 02:29:23;;;;;;;6.47;1.10;;;8.00;99.90;;;;;;5069550;22;20037;-72
2022/10/11 02:31:50;;;;;;;6.07;1.33;;;8.00;99.90;;;;;;5060210;28;20332;-74
2022/10/11 02:34:25;;;;;;;4.90;0.95;;;8.00;99.90;;;;;;5053198;28;20109;-74
2022/10/11 02:37:02;;;;;;;11.23;1.95;;;8.00;99.90;;;;;;5060007;28;20044;-74
2022/10/11 02:39:51;;;;;;;2.67;1.00;;;8.00;99.90;;;;;;5055703;28;20067;-74
2022/10/11 02:42:21;;;;;;;7.72;0.98;;;8.00;99.90;;;;;;5060978;28;20059;-74
2022/10/11 02:45:00;;;;;;;6.38;0.88;;;8.00;99.90;;;;;;5060361;28;20041;-73
2022/10/11 02:47:27;;;;;;;5.85;1.00;;;8.00;99.90;;;;;;5059897;28;20278;-74
2022/10/11 02:49:53;;;;;;;3.97;0.80;;;7.90;99.90;;;;;;5061670;28;20048;-74
2022/10/11 02:52:19;;;;;;;2.40;0.90;;;7.90;99.90;;;;;;5067018;28;20033;-74
2022/10/11 02:54:45;;;;;;;5.27;0.90;;;7.90;99.90;;;;;;5061248;28;20143;-74
2022/10/11 02:57:10;;;;;;;4.60;1.10;;;7.90;99.90;;;;;;5062670;28;20115;-73
2022/10/11 02:59:36;;;;;;;5.87;1.07;;;7.90;99.90;;;;;;5058781;28;20059;-74
2022/10/11 03:02:02;;;;;;;8.20;1.20;;;8.00;99.90;;;;;;5065955;28;20143;-74
2022/10/11 03:04:27;;;;;;;6.07;0.77;;;7.90;99.90;;;;;;5055880;28;20488;-73
2022/10/11 03:06:53;;;;;;;6.53;0.90;;;7.90;99.90;;;;;;5055566;28;20071;-73
2022/10/11 03:09:19;;;;;;;5.43;1.07;;;7.90;99.90;;;;;;5056314;28;20117;-73
2022/10/11 03:11:44;;;;;;;7.47;1.40;;;7.90;99.90;;;;;;5065318;28;20168;-73
2022/10/11 03:14:10;;;;;;;6.10;1.73;;;7.90;99.90;;;;;;5064944;28;20457;-73
2022/10/11 03:16:35;;;;;;;5.50;1.17;;;7.90;99.90;;;;;;5047276;28;20533;-73
2022/10/11 03:19:01;;;;;;;4.70;0.77;;;7.90;99.90;;;;;;5059746;28;20048;-74
2022/10/11 03:21:27;;;;;;;6.67;1.23;;;7.90;99.90;;;;;;5057853;28;20558;-73
2022/10/11 03:23:52;;;;;;;9.97;1.70;;;7.80;99.90;;;;;;5066408;28;20150;-73
2022/10/11 03:26:18;;;;;;;7.60;1.00;;;7.90;99.90;;;;;;5056877;28;20494;-73
2022/10/11 03:28:44;;;;;;;7.20;1.25;;;8.00;99.90;;;;;;5064104;28;20473;-73
2022/10/11 03:31:09;;;;;;;5.10;1.03;;;7.80;99.90;;;;;;5062498;28;20553;-73
2022/10/11 03:33:35;;;;;;;5.37;0.87;;;7.90;99.90;;;;;;5064773;28;20531;-73
2022/10/11 03:36:01;;;;;;;3.92;0.70;;;7.90;99.90;;;;;;5058692;28;20039;-73
2022/10/11 03:38:27;;;;;;;2.80;0.83;;;7.90;99.90;;;;;;5050639;28;20043;-73
2022/10/11 03:40:52;;;;;;;3.08;0.75;;;7.90;99.90;;;;;;5061375;28;20505;-73
2022/10/11 03:43:18;;;;;;;5.27;0.83;;;8.00;99.90;;;;;;5061635;28;20051;-73
2022/10/11 03:45:44;;;;;;;4.73;0.90;;;7.90;99.90;;;;;;5063565;28;20421;-73
2022/10/11 03:48:10;;;;;;;7.93;1.10;;;7.90;99.90;;;;;;5061900;28;20068;-73
2022/10/11 03:50:36;;;;;;;5.07;1.02;;;7.90;99.90;;;;;;5063294;28;20044;-73
2022/10/11 03:53:02;;;;;;;3.30;1.02;;;7.90;99.90;;;;;;5062742;28;20608;-73
2022/10/11 03:55:28;;;;;;;6.10;1.13;;;7.90;99.90;;;;;;5056268;28;20056;-73
2022/10/11 03:57:53;;;;;;;6.23;0.90;;;7.90;99.90;;;;;;5053599;28;20040;-73
2022/10/11 04:00:19;;;;;;;8.63;1.40;;;7.90;99.90;;;;;;5057858;28;20319;-73
2022/10/11 04:02:45;;;;;;;5.68;1.00;;;7.90;99.90;;;;;;5056786;28;20082;-73
2022/10/11 04:05:11;;;;;;;8.75;1.20;;;7.90;99.90;;;;;;5064233;28;20043;-73
2022/10/11 04:07:40;;;;;;;3.40;0.95;;;7.90;99.90;;;;;;5055553;28;20041;-73
2022/10/11 04:10:06;;;;;;;5.78;1.10;;;7.90;99.90;;;;;;5065370;28;20556;-73
2022/10/11 04:12:32;;;;;;;6.20;1.10;;;7.90;99.90;;;;;;5062557;28;20043;-73
2022/10/11 04:14:58;;;;;;;3.90;1.08;;;8.00;99.90;;;;;;5048615;28;20044;-73
2022/10/11 04:17:23;;;;;;;2.93;0.73;;;8.00;99.90;;;;;;5061222;28;20044;-73
2022/10/11 04:19:49;;;;;;;3.27;1.07;;;8.00;99.90;;;;;;5062355;28;20052;-73
2022/10/11 04:22:15;;;;;;;6.17;1.03;;;8.00;99.90;;;;;;5063075;28;20083;-73
2022/10/11 04:24:41;;;;;;;5.68;1.30;;;8.00;99.90;;;;;;5059865;28;20044;-73
2022/10/11 04:27:06;;;;;;;2.93;0.70;;;8.00;99.90;;;;;;5060831;28;20052;-73
2022/10/11 04:29:32;;;;;;;2.70;1.07;;;8.10;99.90;;;;;;5062700;28;20416;-73
2022/10/11 04:31:57;;;;;;;5.77;0.97;;;8.10;99.90;;;;;;5061011;28;20056;-73
2022/10/11 04:34:23;;;;;;;7.07;0.90;;;8.10;99.90;;;;;;5064256;28;20044;-73
2022/10/11 04:36:49;;;;;;;8.20;1.40;;;8.10;99.90;;;;;;5059436;28;20127;-73
2022/10/11 04:39:14;;;;;;;8.97;1.27;;;8.10;99.90;;;;;;5063009;28;20201;-73
2022/10/11 04:41:40;;;;;;;2.70;0.93;;;8.20;99.90;;;;;;5061842;28;20131;-73
2022/10/11 04:44:06;;;;;;;5.20;1.23;;;8.20;99.90;;;;;;5057762;28;20826;-74
2022/10/11 04:46:31;;;;;;;2.87;1.00;;;8.20;99.90;;;;;;5061199;28;20048;-73
2022/10/11 04:48:58;;;;;;;9.13;1.10;;;8.20;99.90;;;;;;5058014;28;20037;-74
2022/10/11 04:51:24;;;;;;;;;;;8.30;99.90;;;;;;5064420;28;20040;-73
2022/10/11 04:53:50;;;;;;;9.63;1.08;;;8.30;99.90;;;;;;5064002;28;19920;-77
2022/10/11 04:56:18;;;;;;;6.10;1.07;;;8.20;99.90;;;;;;5064206;28;20040;-74
2022/10/11 04:58:47;;;;;;;5.07;1.00;;;8.40;99.90;;;;;;5061363;28;20418;-74
2022/10/11 05:01:12;;;;;;;4.13;1.15;;;8.40;99.90;;;;;;5059384;28;20401;-74
2022/10/11 05:03:38;;;;;;;2.53;1.07;;;8.40;99.90;;;;;;5062382;28;20041;-74
2022/10/11 05:06:04;;;;;;;4.47;1.50;;;8.40;99.90;;;;;;5063922;28;20117;-73
2022/10/11 05:08:30;;;;;;;3.00;1.13;;;8.30;99.90;;;;;;5064354;28;20402;-74
2022/10/11 05:11:02;;;;;;;6.07;1.33;;;8.40;99.90;;;;;;5059366;28;20040;-74
2022/10/11 05:13:29;;;;;;;4.18;1.00;;;8.30;99.90;;;;;;5041493;28;20040;-74
2022/10/11 05:15:55;;;;;;;6.72;1.23;;;8.30;99.90;;;;;;5060174;28;20048;-74
2022/10/11 05:18:22;;;;;;;9.45;1.10;;;8.30;99.90;;;;;;5061610;28;20045;-74
2022/10/11 05:20:47;;;;;;;6.38;1.13;;;8.30;99.90;;;;;;5063165;28;20098;-78
2022/10/11 05:23:13;;;;;;;9.13;1.05;;;8.30;99.90;;;;;;5063046;28;20029;-74
2022/10/11 05:25:39;;;;;;;7.67;1.90;;;8.30;99.90;;;;;;5056708;28;20045;-74
2022/10/11 05:28:05;;;;;;;7.32;0.77;;;8.30;99.90;;;;;;5056506;28;20437;-74
2022/10/11 05:30:33;;;;;;;7.03;1.38;;;8.30;99.90;;;;;;5059006;28;20052;-73
2022/10/11 05:33:02;;;;;;;8.83;1.20;;;8.20;99.90;;;;;;5063734;28;20048;-78
2022/10/11 05:35:27;;;;;;;7.10;2.13;;;8.20;99.90;;;;;;5064929;28;20040;-74
2022/10/11 05:37:53;;;;;;;6.50;2.20;;;8.20;99.90;;;;;;5058893;28;20044;-74
2022/10/11 05:40:18;;;;;;;7.07;1.90;;;8.20;99.90;;;;;;5060552;28;20040;-73
2022/10/11 05:42:44;;;;;;;7.37;1.70;;;8.20;99.90;;;;;;5060213;28;20118;-73
2022/10/11 05:45:10;;;;;;;6.77;2.00;;;8.20;99.90;;;;;;5053709;28;20040;-75
2022/10/11 05:47:35;;;;;;;7.10;1.87;;;8.20;99.90;;;;;;5063404;28;20154;-73
2022/10/11 05:50:01;;;;;;;5.67;1.20;;;8.20;99.90;;;;;;5059768;28;20061;-74
2022/10/11 05:52:27;;;;;;;8.97;1.67;;;8.20;99.90;;;;;;5061072;28;20044;-74
2022/10/11 05:54:52;;;;;;;7.25;1.60;;;8.20;99.90;;;;;;5060161;28;20052;-74
2022/10/11 05:57:18;;;;;;;5.67;1.50;;;8.10;99.90;;;;;;5060871;28;20048;-73
2022/10/11 05:59:44;;;;;;;6.50;1.07;;;8.10;99.90;;;;;;5060664;28;20135;-73
2022/10/11 06:02:12;;;;;;;6.70;1.20;;;8.10;99.90;;;;;;5058338;28;20380;-73
2022/10/11 06:04:38;;;;;;;4.32;1.10;;;8.20;99.90;;;;;;5062936;28;20044;-73
2022/10/11 06:07:05;;;;;;;8.07;1.42;;;8.20;99.90;;;;;;5059960;28;20115;-74
2022/10/11 06:09:30;;;;;;;9.35;1.52;;;8.10;99.90;;;;;;5059263;28;20045;-74
2022/10/11 06:11:56;;;;;;;7.07;1.33;;;8.10;99.90;;;;;;5064830;28;20036;-74
2022/10/11 06:14:22;;;;;;;10.67;1.50;;;8.20;99.90;;;;;;5063786;28;20037;-74
2022/10/11 06:16:48;;;;;;;10.10;2.00;;;8.20;99.90;;;;;;5062722;28;20041;-74
2022/10/11 06:19:13;;;;;;;4.00;1.43;;;8.20;99.90;;;;;;5052647;28;20319;-74
2022/10/11 06:21:39;;;;;;;8.05;1.50;;;8.20;99.90;;;;;;5057683;28;20105;-74
2022/10/11 06:24:05;;;;;;;6.10;1.60;;;8.20;99.90;;;;;;5062186;28;20044;-74
2022/10/11 06:26:31;;;;;;;7.63;1.45;;;8.20;99.90;;;;;;5063690;28;20041;-74
2022/10/11 06:28:57;;;;;;;6.75;1.42;;;8.30;99.90;;;;;;5061806;28;20093;-73
2022/10/11 06:31:23;;;;;;;10.50;1.55;;;8.20;99.90;;;;;;5067205;28;20375;-73
2022/10/11 06:33:49;;;;;;;7.40;1.42;;;8.30;99.90;;;;;;5067719;28;20502;-73
2022/10/11 06:36:15;;;;;;;4.77;1.17;;;8.40;99.90;;;;;;5062312;28;20182;-73
2022/10/11 06:38:42;;;;;;;2.67;1.13;;;8.40;99.90;;;;;;5044343;28;20127;-73
2022/10/11 06:41:09;;;;;;;;;;;8.40;99.90;;;;;;5066988;28;20044;-73
2022/10/11 06:43:34;;;;;;;7.68;1.25;;;8.40;99.90;;;;;;5054030;28;19920;-74
2022/10/11 06:46:00;;;;;;;3.27;1.00;;;8.40;99.90;;;;;;5066947;28;20040;-74
2022/10/11 06:48:26;;;;;;;8.43;1.13;;;8.50;99.90;;;;;;5062830;28;20037;-74
2022/10/11 06:50:52;;;;;;;9.07;1.48;;;8.50;99.90;;;;;;5067435;28;20036;-74
2022/10/11 06:53:17;;;;;;;11.13;1.73;;;8.60;99.90;;;;;;5062600;28;20055;-74
2022/10/11 06:55:43;;;;;;;4.37;1.17;;;8.60;99.90;;;;;;5067639;28;20125;-74
2022/10/11 06:58:08;;;;;;;6.17;1.83;;;8.70;99.90;;;;;;5065613;28;20120;-74
2022/10/11 07:00:35;;;;;;;7.50;1.40;;;8.80;99.90;;;;;;5066349;28;20211;-74
2022/10/11 07:03:00;;;;;;;4.63;1.35;;;8.80;99.90;;;;;;5060429;28;20040;-74
2022/10/11 07:05:28;;;;;;;4.33;1.43;;;8.80;99.90;;;;;;5066814;28;20551;-74
2022/10/11 07:07:54;;;;;;;8.20;1.45;;;8.90;99.90;;;;;;5066624;28;20048;-74
2022/10/11 07:10:19;;;;;;;9.73;1.67;;;9.00;99.90;;;;;;5064792;28;20036;-74
2022/10/11 07:12:45;;;;;;;7.23;1.60;;;9.10;99.90;;;;;;5042845;28;20052;-74
2022/10/11 07:15:11;;;;;;;4.43;1.17;;;9.20;99.90;;;;;;5071096;28;20487;-74
2022/10/11 07:17:36;;;;;;;4.60;1.40;;;9.20;99.90;;;;;;5064658;28;20297;-74
2022/10/11 07:20:02;;;;;;;4.43;1.20;;;9.30;99.90;;;;;;5066386;28;20095;-74
2022/10/11 07:22:28;;;;;;;5.07;1.30;;;9.40;99.90;;;;;;5067385;28;20132;-74
2022/10/11 07:24:53;;;;;;;4.47;1.57;;;9.40;99.90;;;;;;5074745;28;20036;-74
2022/10/11 07:27:22;;;;;;;5.17;1.53;;;9.50;99.90;;;;;;5063410;28;20032;-74
2022/10/11 07:29:47;;;;;;;4.80;1.30;;;9.50;99.90;;;;;;5066513;28;20041;-74
2022/10/11 07:32:15;;;;;;;8.80;1.73;;;9.60;99.90;;;;;;5061538;28;20447;-75
2022/10/11 07:34:41;;;;;;;8.57;1.80;;;9.60;99.90;;;;;;5065595;28;20040;-74
2022/10/11 07:37:07;;;;;;;4.40;1.45;;;9.70;99.90;;;;;;5060749;28;20398;-74
2022/10/11 07:39:32;;;;;;;9.70;1.20;;;9.70;99.90;;;;;;5060372;28;20040;-74
2022/10/11 07:41:58;;;;;;;6.53;1.20;;;9.80;99.90;;;;;;5061939;28;20036;-75
2022/10/11 07:44:24;;;;;;;7.55;1.40;;;9.80;99.90;;;;;;5047006;28;20414;-74
2022/10/11 07:46:50;;;;;;;4.13;1.23;;;9.80;99.90;;;;;;5060502;28;20436;-74
2022/10/11 07:49:15;;;;;;;7.60;2.15;;;9.90;99.90;;;;;;5065595;28;20044;-74
2022/10/11 07:51:41;;;;;;;4.90;0.97;;;9.90;99.90;;;;;;5066301;28;20048;-74
2022/10/11 07:54:07;;;;;;;6.10;1.37;;;9.90;99.90;;;;;;5062461;28;20095;-74
2022/10/11 07:56:32;;;;;;;6.17;1.30;;;10.00;99.90;;;;;;5063813;28;20048;-74
2022/10/11 07:59:02;;;;;;;12.03;1.70;;;10.10;99.90;;;;;;5063359;28;20261;-74
2022/10/11 08:01:28;;;;;;;9.13;1.80;;;10.10;99.90;;;;;;5061358;28;20473;-74
2022/10/11 08:03:55;;;;;;;8.43;1.27;;;10.20;99.90;;;;;;5053908;28;20473;-74
2022/10/11 08:06:25;;;;;;;4.63;1.15;;;10.20;99.90;;;;;;5064650;28;20052;-75
2022/10/11 08:08:50;;;;;;;4.70;1.55;;;10.30;99.90;;;;;;5066632;28;20497;-74
2022/10/11 08:11:21;;;;;;;9.63;1.53;;;10.30;99.90;;;;;;5065049;28;20119;-74
2022/10/11 08:13:47;;;;;;;5.80;1.25;;;10.40;99.90;;;;;;5060574;28;20044;-74
2022/10/11 08:16:13;;;;;;;6.32;1.55;;;10.50;99.90;;;;;;5058565;28;20505;-74
2022/10/11 08:18:39;;;;;;;5.10;1.27;;;10.60;99.90;;;;;;5059184;28;20040;-74
2022/10/11 08:21:07;;;;;;;5.47;1.10;;;10.60;99.90;;;;;;5059482;28;20039;-74
2022/10/11 08:23:33;;;;;;;6.43;1.17;;;10.70;99.90;;;;;;5061291;28;20179;-74
2022/10/11 08:25:58;;;;;;;7.87;1.57;;;10.70;99.90;;;;;;5061929;28;20116;-74
2022/10/11 08:28:24;;;;;;;8.13;1.63;;;10.80;99.90;;;;;;5087967;22;20229;-74
2022/10/11 08:30:51;;;;;;;13.80;1.50;;;10.90;99.90;;;;;;5073124;28;20044;-74
2022/10/11 08:33:18;;;;;;;10.07;1.35;;;11.00;99.90;;;;;;5090944;28;20052;-74
2022/10/11 08:35:44;;;;;;;3.92;1.58;;;11.10;99.90;;;;;;5069757;28;20159;-74
2022/10/11 08:38:09;;;;;;;5.05;1.30;;;11.20;99.90;;;;;;5065173;28;20120;-74
2022/10/11 08:40:35;;;;;;;5.53;0.97;;;11.30;99.90;;;;;;5089953;28;20074;-74
2022/10/11 08:43:05;;;;;;;5.97;1.13;;;11.50;99.90;;;;;;5084898;28;20548;-74
2022/10/11 08:45:49;;;;;;;5.68;1.17;;;11.50;99.90;;;;;;5082575;28;20629;-74
2022/10/11 08:48:21;;;;;;;6.20;2.10;;;11.70;99.90;;;;;;5083176;28;20343;-73
2022/10/11 08:50:51;;;;;;;9.20;1.58;;;11.60;99.90;;;;;;5079297;28;20050;-74
2022/10/11 08:53:38;;;;;;;9.93;1.70;;;11.80;99.90;;;;;;5083694;28;20177;-74
2022/10/11 08:56:04;;;;;;;8.55;1.75;;;11.80;99.90;;;;;;5078114;28;20032;-74
2022/10/11 08:58:46;;;;;;;6.35;1.63;;;11.80;99.90;;;;;;5086266;28;20369;-74
2022/10/11 09:01:17;;;;;;;9.35;1.58;;;11.90;99.90;;;;;;5076257;28;20033;-74
2022/10/11 09:03:46;;;;;;;10.38;3.03;;;12.00;99.90;;;;;;5076545;28;20071;-73
2022/10/11 09:06:22;;;;;;;4.32;1.13;;;12.00;99.90;;;;;;5081477;28;20150;-74
2022/10/11 09:09:05;;;;;;;10.77;2.10;;;12.10;99.90;;;;;;5073650;28;20046;-74
2022/10/11 09:11:52;;;;;;;6.05;1.42;;;12.20;99.90;;;;;;5078804;28;20376;-74
2022/10/11 09:14:36;;;;;;;8.27;1.45;;;12.20;99.90;;;;;;5072155;28;20487;-74
2022/10/11 09:17:33;;;;;;;6.72;1.45;;;12.40;99.90;;;;;;5072284;28;20117;-73
2022/10/11 09:20:42;;;;;;;8.27;1.08;;;12.50;99.90;;;;;;5084284;28;20043;-74
2022/10/11 09:23:27;;;;;;;6.00;1.63;;;12.60;99.90;;;;;;5058110;28;20466;-74
2022/10/11 09:26:01;;;;;;;7.88;1.48;;;12.70;99.90;;;;;;5073903;28;20485;-74
2022/10/11 09:29:01;;;;;;;5.78;0.93;;;12.80;99.90;;;;;;5083539;28;20079;-74
2022/10/11 09:31:27;;;;;;;6.70;1.58;;;12.90;99.90;;;;;;5076953;28;20278;-74
2022/10/11 09:33:54;;;;;;;8.10;1.52;;;13.00;99.90;;;;;;5060914;28;20089;-74
2022/10/11 09:36:30;;;;;;;5.50;1.05;;;13.10;99.90;;;;;;5081856;28;20485;-74
2022/10/11 09:39:08;;;;;;;5.85;1.27;;;13.20;99.90;;;;;;5074699;28;20044;-74
2022/10/11 09:41:41;;;;;;;4.80;1.67;;;13.30;99.90;;;;;;5070178;28;20513;-74
2022/10/11 09:44:17;;;;;;;6.78;1.23;;;13.40;99.90;;;;;;5072931;28;20040;-74
2022/10/11 09:46:44;;;;;;;4.38;0.98;;;13.50;99.90;;;;;;5081468;28;20052;-74
2022/10/11 09:49:13;;;;;;;7.15;1.17;;;13.60;99.90;;;;;;5087157;28;20036;-74
2022/10/11 09:51:41;;;;;;;11.73;1.30;;;13.70;99.90;;;;;;5078457;28;20043;-74
2022/10/11 09:54:09;;;;;;;3.00;1.00;;;13.80;99.90;;;;;;5080836;28;20048;-74
2022/10/11 09:56:41;;;;;;;6.05;0.98;;;13.90;99.90;;;;;;5086066;28;20309;-74
2022/10/11 09:59:29;;;;;;;7.72;1.00;;;13.90;99.90;;;;;;5075354;28;20040;-74
2022/10/11 10:02:13;;;;;;;3.85;1.02;;;14.10;99.90;;;;;;5082745;28;20043;-74
2022/10/11 10:04:59;;;;;;;5.28;1.10;;;14.10;99.90;;;;;;5089765;28;20048;-74
2022/10/11 10:07:26;;;;;;;7.15;2.05;;;14.30;99.90;;;;;;5079097;28;20085;-74
2022/10/11 10:09:52;;;;;;;2.53;0.82;;;14.40;99.90;;;;;;5080674;28;20058;-75
2022/10/11 10:12:35;;;;;;;6.95;1.48;;;14.50;99.90;;;;;;5077239;28;20032;-74
2022/10/11 10:15:32;;;;;;;6.70;1.10;;;14.60;99.90;;;;;;5082684;28;20156;-74
2022/10/11 10:17:58;;;;;;;7.50;1.30;;;14.60;99.90;;;;;;5099460;28;20154;-74
2022/10/11 10:20:30;;;;;;;8.60;1.60;;;14.70;99.90;;;;;;5091862;28;20061;-74
2022/10/11 10:23:05;;;;;;;7.65;1.20;;;14.80;99.90;;;;;;5078737;28;20135;-74
2022/10/11 10:25:34;;;;;;;3.88;0.70;;;14.80;99.90;;;;;;5079936;28;20044;-74
2022/10/11 10:28:03;;;;;;;6.30;1.35;;;15.00;99.90;;;;;;5080010;28;20080;-74
2022/10/11 10:30:29;;;;;;;3.00;0.75;;;15.10;99.90;;;;;;5059108;28;20044;-74
2022/10/11 10:33:01;;;;;;;;;;;15.10;99.90;;;;;;5084255;28;20386;-74
2022/10/11 10:35:43;;;;;;;7.72;1.00;;;15.00;99.90;;;;;;5074348;28;19920;-74
2022/10/11 10:38:20;;;;;;;5.07;1.50;;;15.00;99.90;;;;;;5076125;28;20048;-74
2022/10/11 10:40:52;;;;;;;5.90;0.98;;;15.00;99.90;;;;;;5084643;28;20115;-74
2022/10/11 10:43:22;;;;;;;5.07;0.93;;;15.10;99.90;;;;;;5089619;28;20039;-74
2022/10/11 10:45:51;;;;;;;7.18;1.17;;;15.20;99.90;;;;;;5084285;28;20044;-74
2022/10/11 10:48:33;;;;;;;2.95;0.70;;;15.30;99.90;;;;;;5076302;28;20236;-74
2022/10/11 10:51:11;;;;;;;3.75;0.70;;;15.40;99.90;;;;;;5070641;28;20434;-74
2022/10/11 10:53:46;;;;;;;4.97;1.10;;;15.50;99.90;;;;;;5085009;28;20052;-74
2022/10/11 10:56:22;;;;;;;6.82;1.60;;;15.60;99.90;;;;;;5079376;28;20128;-74
2022/10/11 10:59:06;;;;;;;9.00;0.75;;;15.60;99.90;;;;;;5084257;28;20048;-74
2022/10/11 11:01:36;;;;;;;2.55;0.60;;;15.70;99.90;;;;;;5081304;28;20351;-74
2022/10/11 11:04:26;;;;;;;5.70;1.25;;;15.80;99.90;;;;;;5086513;28;20571;-74
2022/10/11 11:07:02;;;;;;;3.45;0.85;;;15.90;99.90;;;;;;5082375;28;20036;-75
2022/10/11 11:09:48;;;;;;;3.23;0.97;;;15.90;99.90;;;;;;5089520;28;20048;-74
2022/10/11 11:12:42;;;;;;;2.55;0.57;;;15.90;99.90;;;;;;5076989;28;20063;-74
2022/10/11 11:15:15;;;;;;;6.75;0.80;;;15.90;99.90;;;;;;5077203;28;20119;-75
2022/10/11 11:18:04;;;;;;;3.92;0.70;;;16.00;99.90;;;;;;5081894;28;20044;-74
2022/10/11 11:21:03;;;;;;;4.30;1.35;;;16.00;99.90;;;;;;5049577;28;20083;-74
2022/10/11 11:23:56;;;;;;;4.70;0.93;;;16.10;99.90;;;;;;5064609;28;20081;-74
2022/10/11 11:26:45;;;;;;;5.70;0.77;;;16.10;99.90;;;;;;5077873;28;20027;-74
2022/10/11 11:29:44;;;;;;;6.55;1.73;;;16.10;99.90;;;;;;5081295;28;20058;-75
2022/10/11 11:32:27;;;;;;;2.05;0.70;;;16.20;99.90;;;;;;5063424;28;20168;-74
2022/10/11 11:35:01;;;;;;;7.03;0.98;;;16.20;99.90;;;;;;5081778;28;20071;-74
2022/10/11 11:37:37;;;;;;;6.03;0.85;;;16.10;99.90;;;;;;5080263;28;20435;-73
2022/10/11 11:40:16;;;;;;;3.50;0.80;;;16.00;99.90;;;;;;5078814;28;20127;-74
2022/10/11 11:42:50;;;;;;;4.63;0.70;;;16.00;99.90;;;;;;5080818;28;20044;-74
2022/10/11 11:45:25;;;;;;;4.55;0.60;;;16.10;99.90;;;;;;5077918;28;20032;-74
2022/10/11 11:48:00;;;;;;;6.22;0.80;;;16.20;99.90;;;;;;5090899;28;20407;-74
2022/10/11 11:50:36;;;;;;;3.80;0.82;;;16.30;99.90;;;;;;5086175;28;20047;-74
2022/10/11 11:53:15;;;;;;;3.25;0.80;;;16.50;99.90;;;;;;5078743;28;20076;-75
2022/10/11 11:55:55;;;;;;;3.22;0.70;;;16.60;99.90;;;;;;5080930;28;20402;-74
2022/10/11 11:58:28;;;;;;;6.97;0.80;;;16.70;99.90;;;;;;5080650;28;20396;-74
2022/10/11 12:01:00;;;;;;;6.50;1.05;;;16.80;99.90;;;;;;5075203;28;20115;-74
2022/10/11 12:03:31;;;;;;;3.25;0.88;;;16.90;99.90;;;;;;5081812;28;20498;-74
2022/10/11 12:06:12;;;;;;;2.55;0.75;;;17.00;99.90;;;;;;5077543;28;20032;-74
2022/10/11 12:08:41;;;;;;;4.63;0.95;;;17.00;99.90;;;;;;5080879;28;20039;-74
2022/10/11 12:11:25;;;;;;;4.25;1.27;;;17.10;99.90;;;;;;5074361;28;20119;-74
2022/10/11 12:13:53;;;;;;;10.25;1.30;;;17.20;99.90;;;;;;5060776;28;20035;-74
2022/10/11 12:16:19;;;;;;;4.55;1.00;;;17.30;99.90;;;;;;5057397;28;20080;-74
2022/10/11 12:18:50;;;;;;;5.60;1.10;;;17.30;99.90;;;;;;5080884;28;20051;-74
2022/10/11 12:21:21;;;;;;;4.07;0.73;;;17.00;99.90;;;;;;5080960;28;20124;-74
2022/10/11 12:23:54;;;;;;;5.95;1.20;;;16.70;99.90;;;;;;5091276;28;20345;-74
2022/10/11 12:26:36;;;;;;;5.68;1.00;;;16.50;99.90;;;;;;5069468;28;20173;-74
2022/10/11 12:29:17;;;;;;;3.17;0.88;;;16.30;99.90;;;;;;5083208;28;20032;-74
2022/10/11 12:31:44;;;;;;;3.47;1.00;;;16.20;99.90;;;;;;5074518;28;20128;-74
2022/10/11 12:34:33;;;;;;;4.45;1.33;;;16.10;99.90;;;;;;5070312;28;20443;-74
2022/10/11 12:37:19;;;;;;;3.67;1.42;;;16.20;99.90;;;;;;5071091;28;20202;-74
2022/10/11 12:39:50;;;;;;;6.07;0.90;;;16.30;99.90;;;;;;5076669;28;20044;-74
2022/10/11 12:42:34;;;;;;;3.22;0.50;;;16.60;99.90;;;;;;5084031;28;20494;-74
2022/10/11 12:45:12;;;;;;;3.42;0.55;;;16.80;99.90;;;;;;5080007;28;20032;-76
2022/10/11 12:48:16;;;;;;;6.10;1.00;;;17.00;99.90;;;;;;5068216;28;20279;-74
2022/10/11 12:51:13;;;;;;;5.13;0.90;;;17.30;99.90;;;;;;5071044;28;20047;-74
2022/10/11 12:54:04;;;;;;;6.60;1.30;;;17.40;99.90;;;;;;5071160;28;20049;-74
2022/10/11 12:56:51;;;;;;;5.03;0.85;;;17.50;99.90;;;;;;5070728;28;20139;-74
2022/10/11 12:59:21;;;;;;;2.17;0.65;;;17.70;99.90;;;;;;5071184;28;20508;-74
2022/10/11 13:01:53;;;;;;;3.50;0.65;;;17.80;99.90;;;;;;5079673;28;20048;-74
2022/10/11 13:04:31;;;;;;;4.18;1.25;;;17.90;99.90;;;;;;5071100;28;20059;-74
2022/10/11 13:07:06;;;;;;;7.32;1.73;;;18.10;99.90;;;;;;5075664;28;21710;-75
2022/10/11 13:09:38;;;;;;;3.55;0.65;;;17.90;99.90;;;;;;5065512;28;20048;-74
2022/10/11 13:12:07;;;;;;;3.35;0.80;;;18.10;99.90;;;;;;5071315;28;20139;-75
2022/10/11 13:14:42;;;;;;;6.05;1.33;;;18.10;99.90;;;;;;5072336;28;20040;-74